WADD/DPS METAR and TAF weather

Enter ICAO airport designator
Station Type Date Time Source
WADD METAR 2019/08/25 18:00 UTC NOAA

WADD 251800Z 12008KT 9999 FEW017 25/23 Q1013 NOSIG


Station Type Date Time Source
WADD Decoded METAR 2019/08/25 18:00 UTC NOAA

Station name not available
Aug 25, 2019 - 02:00 PM EDT / 2019.08.25 1800 UTC
Wind: from the ESE (120 degrees) at 9 MPH (8 KT):0
Visibility: greater than 7 mile(s):0
Sky conditions: mostly clear
Temperature: 77 F (25 C)
Dew Point: 73 F (23 C)
Relative Humidity: 88%
Pressure (altimeter): 29.91 in. Hg (1013 hPa)
ob: WADD 251800Z 12008KT 9999 FEW017 25/23 Q1013 NOSIG
cycle: 18

Station Type Date Time Source
WADD TAF 2019/08/25 18:09 UTC NOAA

TAF TAF WADD 251700Z 2518/2618 11008KT 9999 SCT016
BECMG 2600/2602 12013KT

Example: see airport list